Time;durP1;ratioP1;P1;durP2;ratioP2;P2;SDS_P1;SDS_P2;PMS_P1;PMS_P2;Temp;Humidity;BMP_temperature;BMP_pressure;BME280_temperature;BME280_humidity;BME280_pressure;Samples;Min_cycle;Max_cycle;Signal;HPM_P1;HPM_P2
2023/08/23 00:02:25;;;;;;;3.38;3.08;;;25.80;67.90;;;;;;5004335;28;20109;-65
2023/08/23 00:04:51;;;;;;;3.65;3.10;;;25.80;68.10;;;;;;5004267;28;20117;-65
2023/08/23 00:07:16;;;;;;;4.25;2.92;;;25.80;67.60;;;;;;5003944;28;20560;-64
2023/08/23 00:09:42;;;;;;;4.82;3.63;;;25.80;67.70;;;;;;5003384;28;20121;-64
2023/08/23 00:12:07;;;;;;;4.30;3.47;;;25.80;67.50;;;;;;4989848;28;20026;-63
2023/08/23 00:14:34;;;;;;;4.05;3.35;;;25.80;67.50;;;;;;5003673;28;20461;-65
2023/08/23 00:16:59;;;;;;;4.07;3.70;;;25.80;67.30;;;;;;4999639;28;20517;-64
2023/08/23 00:19:25;;;;;;;4.50;3.85;;;25.70;66.90;;;;;;5004674;28;20042;-65
2023/08/23 00:21:50;;;;;;;5.18;3.70;;;25.70;67.30;;;;;;5004875;28;20026;-64
2023/08/23 00:24:17;;;;;;;4.47;2.97;;;25.70;67.40;;;;;;5003286;28;20026;-65
2023/08/23 00:26:42;;;;;;;3.50;3.20;;;25.70;67.50;;;;;;5002109;28;20095;-64
2023/08/23 00:29:08;;;;;;;5.85;3.38;;;25.70;67.20;;;;;;5005505;28;20521;-64
2023/08/23 00:31:33;;;;;;;4.07;3.55;;;25.70;67.40;;;;;;5009124;28;20298;-65
2023/08/23 00:33:59;;;;;;;3.58;3.22;;;25.80;67.40;;;;;;5008555;28;20033;-63
2023/08/23 00:36:24;;;;;;;4.03;3.58;;;25.70;67.40;;;;;;5010226;28;20570;-66
2023/08/23 00:38:50;;;;;;;3.90;3.50;;;25.70;67.30;;;;;;5013116;28;20042;-65
2023/08/23 00:41:15;;;;;;;3.85;3.28;;;25.80;67.30;;;;;;5010405;28;20034;-65
2023/08/23 00:43:41;;;;;;;3.42;3.13;;;25.80;67.30;;;;;;5006710;28;20026;-64
2023/08/23 00:46:07;;;;;;;3.90;3.50;;;25.70;67.40;;;;;;5010348;28;20477;-64
2023/08/23 00:48:33;;;;;;;4.82;3.58;;;25.80;67.40;;;;;;5008685;28;20048;-64
2023/08/23 00:50:59;;;;;;;3.83;3.45;;;25.80;67.30;;;;;;5008240;28;20030;-64
2023/08/23 00:53:25;;;;;;;4.05;3.67;;;25.70;67.20;;;;;;5012209;28;20039;-64
2023/08/23 00:55:51;;;;;;;3.50;3.17;;;25.80;67.40;;;;;;5008559;28;20116;-65
2023/08/23 00:58:17;;;;;;;3.17;2.88;;;25.80;67.30;;;;;;4997175;28;20036;-65
2023/08/23 01:00:44;;;;;;;4.10;3.30;;;25.70;67.30;;;;;;5002862;28;20030;-64
2023/08/23 01:03:10;;;;;;;3.50;3.17;;;25.70;67.30;;;;;;5010490;28;20130;-66
2023/08/23 01:05:50;;;;;;;4.50;3.38;;;25.70;67.40;;;;;;5006822;28;20033;-63
2023/08/23 01:08:22;;;;;;;4.07;3.00;;;25.80;67.40;;;;;;5005911;28;20041;-65
2023/08/23 01:10:57;;;;;;;3.60;3.30;;;25.70;67.20;;;;;;5008883;28;20141;-65
2023/08/23 01:13:50;;;;;;;3.83;3.53;;;25.70;67.20;;;;;;5012798;28;20037;-64
2023/08/23 01:16:19;;;;;;;4.00;3.15;;;25.80;67.20;;;;;;5008441;28;20033;-57
2023/08/23 01:18:45;;;;;;;3.88;3.30;;;25.70;67.30;;;;;;5007682;28;20262;-64
2023/08/23 01:21:14;;;;;;;3.80;3.40;;;25.70;67.20;;;;;;5008654;28;20030;-64
2023/08/23 01:23:41;;;;;;;3.30;3.03;;;25.70;67.10;;;;;;5010628;28;20025;-61
2023/08/23 01:26:07;;;;;;;3.92;3.50;;;25.70;67.20;;;;;;5003231;28;20038;-64
2023/08/23 01:28:32;;;;;;;3.53;3.22;;;25.70;67.30;;;;;;5013517;28;20470;-63
2023/08/23 01:30:59;;;;;;;4.45;3.15;;;25.70;67.20;;;;;;5007236;28;20030;-65
2023/08/23 01:33:33;;;;;;;3.55;3.25;;;25.70;67.10;;;;;;5002830;28;20045;-64
2023/08/23 01:36:16;;;;;;;4.78;4.03;;;25.70;67.10;;;;;;5005726;28;20033;-64
2023/08/23 01:38:42;;;;;;;5.03;3.90;;;25.70;67.20;;;;;;5002615;28;20038;-64
2023/08/23 01:41:08;;;;;;;4.15;3.75;;;25.70;67.30;;;;;;5011598;28;20447;-65
2023/08/23 01:43:34;;;;;;;3.58;3.28;;;25.70;67.30;;;;;;5014177;28;20037;-63
2023/08/23 01:45:59;;;;;;;4.75;3.92;;;25.70;67.20;;;;;;5009728;28;20044;-60
2023/08/23 01:48:25;;;;;;;4.50;3.97;;;25.70;67.10;;;;;;5007909;28;20096;-65
2023/08/23 01:50:52;;;;;;;3.75;3.45;;;25.70;67.10;;;;;;4999939;28;20069;-56
2023/08/23 01:53:17;;;;;;;5.00;4.07;;;25.70;66.90;;;;;;5007606;28;20061;-65
2023/08/23 01:55:43;;;;;;;3.67;3.38;;;25.70;67.10;;;;;;5004761;28;20421;-64
2023/08/23 01:58:08;;;;;;;4.40;3.90;;;25.70;67.20;;;;;;5006163;28;20044;-63
2023/08/23 02:00:34;;;;;;;4.35;3.60;;;25.70;67.20;;;;;;5007856;28;20370;-65
2023/08/23 02:02:59;;;;;;;4.53;3.97;;;25.70;67.10;;;;;;5001152;28;20045;-55
2023/08/23 02:05:25;;;;;;;4.80;3.35;;;25.70;67.00;;;;;;4987585;28;20522;-59
2023/08/23 02:07:50;;;;;;;4.10;3.60;;;25.70;67.10;;;;;;5003869;28;20053;-59
2023/08/23 02:10:16;;;;;;;4.65;4.22;;;25.70;67.30;;;;;;5008284;28;20519;-63
2023/08/23 02:12:42;;;;;;;4.63;3.75;;;25.70;67.30;;;;;;5007970;28;20443;-63
2023/08/23 02:15:07;;;;;;;4.50;3.70;;;25.70;67.10;;;;;;5008502;28;20030;-63
2023/08/23 02:17:33;;;;;;;3.75;3.35;;;25.60;67.70;;;;;;5007261;28;20556;-60
2023/08/23 02:19:58;;;;;;;3.72;3.42;;;25.70;67.10;;;;;;5009037;28;20164;-58
2023/08/23 02:22:24;;;;;;;4.68;3.92;;;25.70;67.10;;;;;;5010250;28;20050;-64
2023/08/23 02:24:49;;;;;;;4.32;3.95;;;25.70;67.10;;;;;;5004310;28;20030;-59
2023/08/23 02:27:15;;;;;;;5.05;4.20;;;25.60;66.90;;;;;;5005472;28;20416;-64
2023/08/23 02:29:40;;;;;;;4.38;3.95;;;25.60;66.80;;;;;;5007106;28;20709;-59
2023/08/23 02:32:06;;;;;;;4.80;4.40;;;25.60;66.70;;;;;;5001284;28;20137;-63
2023/08/23 02:34:31;;;;;;;4.32;3.92;;;25.60;66.90;;;;;;4999783;28;20026;-59
2023/08/23 02:36:57;;;;;;;4.32;3.92;;;25.60;67.00;;;;;;5005435;28;20034;-64
2023/08/23 02:39:23;;;;;;;4.72;4.25;;;25.60;67.00;;;;;;5000719;28;20148;-62
2023/08/23 02:41:48;;;;;;;4.95;4.45;;;25.60;67.00;;;;;;4993131;28;20314;-61
2023/08/23 02:44:14;;;;;;;4.68;4.20;;;25.60;66.20;;;;;;4998824;28;20026;-63
2023/08/23 02:46:39;;;;;;;4.38;3.88;;;25.50;66.90;;;;;;4995581;28;20124;-64
2023/08/23 02:49:04;;;;;;;4.80;4.40;;;25.50;66.70;;;;;;4999983;28;20116;-54
2023/08/23 02:51:30;;;;;;;5.97;4.03;;;25.50;66.60;;;;;;5004941;28;20038;-62
2023/08/23 02:53:55;;;;;;;5.20;3.88;;;25.50;66.70;;;;;;4992000;28;20030;-59
2023/08/23 02:56:22;;;;;;;4.93;4.10;;;25.50;66.80;;;;;;5000721;28;20040;-64
2023/08/23 02:58:47;;;;;;;4.30;3.90;;;25.50;66.90;;;;;;5001596;28;20045;-63
2023/08/23 03:01:14;;;;;;;3.85;3.55;;;25.50;66.90;;;;;;4998094;28;20018;-64
2023/08/23 03:03:39;;;;;;;4.35;3.95;;;25.50;67.10;;;;;;4999361;28;20033;-64
2023/08/23 03:06:05;;;;;;;4.47;4.07;;;25.50;66.80;;;;;;5005296;28;20022;-63
2023/08/23 03:08:30;;;;;;;4.70;4.13;;;25.50;66.80;;;;;;4999593;28;20034;-60
2023/08/23 03:11:06;;;;;;;4.40;3.85;;;25.50;66.90;;;;;;4993041;28;20089;-59
2023/08/23 03:13:32;;;;;;;4.45;4.05;;;25.50;66.80;;;;;;5004768;28;20125;-64
2023/08/23 03:15:59;;;;;;;4.18;3.78;;;25.50;66.80;;;;;;5004331;28;20515;-59
2023/08/23 03:18:25;;;;;;;5.00;4.20;;;25.50;66.90;;;;;;5003631;28;20034;-63
2023/08/23 03:20:51;;;;;;;4.25;3.85;;;25.50;66.70;;;;;;5001355;28;20057;-63
2023/08/23 03:23:18;;;;;;;5.43;4.47;;;25.40;66.60;;;;;;5006898;28;20037;-64
2023/08/23 03:25:48;;;;;;;4.40;4.00;;;25.40;66.70;;;;;;5003570;28;20117;-63
2023/08/23 03:28:13;;;;;;;4.22;3.80;;;25.40;66.70;;;;;;4997507;28;20081;-64
2023/08/23 03:30:40;;;;;;;4.85;4.15;;;25.40;66.80;;;;;;5006786;28;20463;-63
2023/08/23 03:33:05;;;;;;;5.07;4.10;;;25.40;66.80;;;;;;5006005;28;20554;-64
2023/08/23 03:35:31;;;;;;;4.22;3.83;;;25.40;66.70;;;;;;5008554;28;20072;-62
2023/08/23 03:37:57;;;;;;;4.13;3.70;;;25.50;66.80;;;;;;5007732;28;20268;-64
2023/08/23 03:40:23;;;;;;;3.83;3.53;;;25.50;67.00;;;;;;5012697;28;20064;-63
2023/08/23 03:42:48;;;;;;;4.78;4.32;;;25.50;66.80;;;;;;5010087;28;20041;-64
2023/08/23 03:45:14;;;;;;;4.50;3.88;;;25.50;66.70;;;;;;5008569;28;20076;-62
2023/08/23 03:47:39;;;;;;;4.90;4.43;;;25.50;66.70;;;;;;5011976;28;20034;-57
2023/08/23 03:50:05;;;;;;;6.38;4.22;;;25.40;66.60;;;;;;5007465;28;20037;-64
2023/08/23 03:52:31;;;;;;;4.03;3.63;;;25.40;66.60;;;;;;5009497;28;20030;-63
2023/08/23 03:54:56;;;;;;;4.70;4.28;;;25.50;66.70;;;;;;4993383;28;20125;-53
2023/08/23 03:57:22;;;;;;;4.18;3.78;;;25.50;66.90;;;;;;5013966;28;20120;-62
2023/08/23 03:59:47;;;;;;;4.72;4.32;;;25.40;66.90;;;;;;5008915;28;20038;-59
2023/08/23 04:02:13;;;;;;;4.88;4.30;;;25.40;64.80;;;;;;5010494;28;20075;-63
2023/08/23 04:04:38;;;;;;;6.00;5.43;;;25.30;64.40;;;;;;5009811;28;20097;-63
2023/08/23 04:07:07;;;;;;;5.85;4.90;;;25.30;64.30;;;;;;5002790;28;20109;-59
2023/08/23 04:09:32;;;;;;;7.05;5.20;;;25.20;64.10;;;;;;5003442;28;20125;-64
2023/08/23 04:11:58;;;;;;;7.47;5.30;;;25.20;64.00;;;;;;4999872;28;20117;-57
2023/08/23 04:14:24;;;;;;;4.95;4.40;;;25.20;63.90;;;;;;5003113;28;20038;-64
2023/08/23 04:16:49;;;;;;;5.88;4.72;;;25.10;63.70;;;;;;5008435;28;20030;-62
2023/08/23 04:19:14;;;;;;;5.50;5.00;;;25.10;63.70;;;;;;5006037;28;20050;-60
2023/08/23 04:21:40;;;;;;;10.02;5.97;;;25.10;63.60;;;;;;5003380;28;20089;-60
2023/08/23 04:24:06;;;;;;;5.57;5.00;;;25.10;63.50;;;;;;5003871;28;20448;-62
2023/08/23 04:26:31;;;;;;;5.55;4.30;;;25.10;63.50;;;;;;5002742;28;20033;-55
2023/08/23 04:28:57;;;;;;;5.15;3.92;;;25.10;63.60;;;;;;5007201;28;20022;-61
2023/08/23 04:31:22;;;;;;;5.13;4.63;;;25.10;63.50;;;;;;5007261;28;20034;-56
2023/08/23 04:33:48;;;;;;;6.40;5.05;;;25.00;63.40;;;;;;5000010;28;20127;-64
2023/08/23 04:36:13;;;;;;;6.60;4.32;;;25.00;63.40;;;;;;5006686;28;20445;-63
2023/08/23 04:38:39;;;;;;;6.25;4.50;;;25.00;63.40;;;;;;5006996;28;20053;-62
2023/08/23 04:41:05;;;;;;;5.57;4.53;;;25.00;63.40;;;;;;5002297;28;20412;-58
2023/08/23 04:43:31;;;;;;;6.43;5.07;;;24.90;63.40;;;;;;4989854;28;20466;-63
2023/08/23 04:45:58;;;;;;;7.28;4.65;;;24.90;63.20;;;;;;5008091;28;20029;-64
2023/08/23 04:48:23;;;;;;;5.53;4.63;;;24.90;63.40;;;;;;5007139;28;20053;-64
2023/08/23 04:50:56;;;;;;;5.88;4.78;;;24.90;63.60;;;;;;5002178;28;20050;-65
2023/08/23 04:53:22;;;;;;;6.35;4.97;;;24.90;63.50;;;;;;5001889;28;20038;-63
2023/08/23 04:55:48;;;;;;;8.85;5.03;;;24.90;63.50;;;;;;5002004;28;20034;-64
2023/08/23 04:58:14;;;;;;;7.60;4.80;;;24.90;63.30;;;;;;4996350;28;20100;-60
2023/08/23 05:00:40;;;;;;;7.93;5.22;;;24.80;63.50;;;;;;5003513;28;20030;-64
2023/08/23 05:03:06;;;;;;;5.93;4.57;;;24.90;63.60;;;;;;5010188;28;20025;-59
2023/08/23 05:05:31;;;;;;;6.13;4.55;;;24.80;63.50;;;;;;5009061;28;20034;-57
2023/08/23 05:07:57;;;;;;;5.70;4.38;;;24.90;63.70;;;;;;5011162;28;20037;-65
2023/08/23 05:10:22;;;;;;;8.55;4.95;;;24.90;63.80;;;;;;5013040;28;20034;-66
2023/08/23 05:12:48;;;;;;;5.18;4.63;;;24.90;64.10;;;;;;5004549;28;20520;-67
2023/08/23 05:15:13;;;;;;;6.57;4.50;;;25.00;64.00;;;;;;5014523;28;20033;-64
2023/08/23 05:17:39;;;;;;;8.50;5.05;;;25.00;63.60;;;;;;5006319;28;20042;-65
2023/08/23 05:20:05;;;;;;;10.40;4.88;;;24.80;63.20;;;;;;5002931;28;20022;-63
2023/08/23 05:22:31;;;;;;;6.20;5.22;;;24.70;65.40;;;;;;5010213;28;20056;-66
2023/08/23 05:24:56;;;;;;;6.88;5.10;;;24.60;65.80;;;;;;5012596;28;20061;-61
2023/08/23 05:27:22;;;;;;;8.23;4.55;;;24.50;66.00;;;;;;5009303;28;20745;-63
2023/08/23 05:29:47;;;;;;;6.43;5.57;;;24.50;66.10;;;;;;5008721;28;21348;-64
2023/08/23 05:32:13;;;;;;;7.28;4.82;;;24.50;66.50;;;;;;5011026;28;20025;-67
2023/08/23 05:34:40;;;;;;;6.60;5.75;;;24.40;66.40;;;;;;5008861;28;20044;-60
2023/08/23 05:37:06;;;;;;;6.70;5.40;;;24.40;66.50;;;;;;5013755;28;20037;-64
2023/08/23 05:39:32;;;;;;;7.88;5.20;;;24.40;66.80;;;;;;5012838;28;20038;-63
2023/08/23 05:41:58;;;;;;;10.40;6.05;;;24.30;66.90;;;;;;5004508;28;20260;-64
2023/08/23 05:44:23;;;;;;;9.10;5.95;;;24.40;67.30;;;;;;5006344;28;20046;-64
2023/08/23 05:46:49;;;;;;;8.55;5.80;;;24.30;67.50;;;;;;5007084;28;20037;-64
2023/08/23 05:49:14;;;;;;;8.48;6.50;;;24.40;67.80;;;;;;5007338;28;20511;-66
2023/08/23 05:51:40;;;;;;;8.98;6.60;;;24.30;67.90;;;;;;5003190;28;20030;-65
2023/08/23 05:54:06;;;;;;;8.30;6.60;;;24.30;68.00;;;;;;5007418;28;20060;-66
2023/08/23 05:56:31;;;;;;;9.63;7.28;;;24.40;68.30;;;;;;4986683;28;20438;-65
2023/08/23 05:58:57;;;;;;;9.18;6.82;;;24.40;68.40;;;;;;5009023;28;20125;-65
2023/08/23 06:01:23;;;;;;;9.38;7.03;;;24.30;68.60;;;;;;5006833;28;20041;-64
2023/08/23 06:03:49;;;;;;;12.65;8.30;;;24.30;68.60;;;;;;5011167;28;20042;-66
2023/08/23 06:06:14;;;;;;;10.52;6.47;;;24.20;68.40;;;;;;5009002;28;20078;-61
2023/08/23 06:08:40;;;;;;;8.13;7.05;;;24.30;68.50;;;;;;5010356;28;20041;-66
2023/08/23 06:11:06;;;;;;;9.25;6.75;;;24.30;68.60;;;;;;5005908;28;20046;-64
2023/08/23 06:13:32;;;;;;;9.35;7.03;;;24.30;68.70;;;;;;5007829;28;20221;-64
2023/08/23 06:15:58;;;;;;;11.00;6.82;;;24.20;68.70;;;;;;5006404;28;20555;-65
2023/08/23 06:18:24;;;;;;;12.13;6.88;;;24.20;68.90;;;;;;5004952;28;20057;-65
2023/08/23 06:20:49;;;;;;;10.18;6.70;;;24.20;69.00;;;;;;5001273;28;20026;-64
2023/08/23 06:23:15;;;;;;;9.38;7.10;;;24.20;69.10;;;;;;5005443;28;20420;-67
2023/08/23 06:25:41;;;;;;;8.85;6.30;;;24.20;69.40;;;;;;5009254;28;20096;-67
2023/08/23 06:28:07;;;;;;;10.05;7.25;;;24.20;69.60;;;;;;5006240;28;20362;-64
2023/08/23 06:30:35;;;;;;;7.15;6.25;;;24.20;69.60;;;;;;5007807;28;20065;-66
2023/08/23 06:33:01;;;;;;;7.55;5.78;;;24.20;69.60;;;;;;5010759;28;20108;-67
2023/08/23 06:35:27;;;;;;;8.63;6.50;;;24.30;69.70;;;;;;5009240;28;20120;-64
2023/08/23 06:37:52;;;;;;;9.98;6.35;;;24.30;69.50;;;;;;5011316;28;20038;-64
2023/08/23 06:40:18;;;;;;;11.18;6.90;;;24.30;69.10;;;;;;5006148;28;20041;-65
2023/08/23 06:42:43;;;;;;;9.30;6.68;;;24.30;68.40;;;;;;5011401;28;20026;-65
2023/08/23 06:45:09;;;;;;;8.98;6.03;;;24.40;69.60;;;;;;5010781;28;20468;-64
2023/08/23 06:47:36;;;;;;;8.38;6.05;;;24.30;69.80;;;;;;5011420;28;20026;-64
2023/08/23 06:50:02;;;;;;;9.13;5.88;;;24.30;69.80;;;;;;5006162;28;20030;-62
2023/08/23 06:52:28;;;;;;;9.23;5.78;;;24.20;69.80;;;;;;5008953;28;20041;-64
2023/08/23 06:54:53;;;;;;;9.00;5.85;;;24.20;70.40;;;;;;5007787;28;20032;-65
2023/08/23 06:57:21;;;;;;;7.50;6.28;;;24.20;70.20;;;;;;5005210;28;20026;-64
2023/08/23 06:59:47;;;;;;;9.45;6.57;;;24.20;70.20;;;;;;5008692;28;20034;-63
2023/08/23 07:02:12;;;;;;;11.13;6.78;;;24.30;70.30;;;;;;5010439;28;20109;-65
2023/08/23 07:04:38;;;;;;;7.85;6.78;;;24.20;70.30;;;;;;4989561;28;20026;-66
2023/08/23 07:07:03;;;;;;;12.50;7.93;;;24.20;69.70;;;;;;5013328;28;20064;-64
2023/08/23 07:09:29;;;;;;;12.88;6.47;;;24.30;69.10;;;;;;4991274;28;20053;-63
2023/08/23 07:11:54;;;;;;;11.30;7.13;;;24.30;69.00;;;;;;5002389;28;20548;-65
2023/08/23 07:14:20;;;;;;;8.23;7.03;;;24.30;69.60;;;;;;5006445;28;20041;-64
2023/08/23 07:16:45;;;;;;;10.77;7.47;;;24.30;69.00;;;;;;5000553;28;20634;-64
2023/08/23 07:19:12;;;;;;;9.75;5.80;;;24.30;68.90;;;;;;5001017;28;20661;-60
2023/08/23 07:21:37;;;;;;;12.02;6.10;;;24.30;69.50;;;;;;5002133;28;20033;-60
2023/08/23 07:24:03;;;;;;;11.05;8.18;;;24.30;70.00;;;;;;5005172;28;20091;-65
2023/08/23 07:26:28;;;;;;;9.90;6.57;;;24.20;69.10;;;;;;5002224;28;20432;-62
2023/08/23 07:28:54;;;;;;;11.40;6.43;;;24.30;69.80;;;;;;5006613;28;20117;-61
2023/08/23 07:31:20;;;;;;;8.50;6.40;;;24.30;70.20;;;;;;5010845;28;20026;-61
2023/08/23 07:33:45;;;;;;;11.82;6.95;;;24.20;70.40;;;;;;5011338;28;20026;-65
2023/08/23 07:36:11;;;;;;;11.30;6.85;;;24.20;70.20;;;;;;5009246;28;20025;-62
2023/08/23 07:38:37;;;;;;;9.25;6.22;;;24.30;70.20;;;;;;5008975;28;20091;-64
2023/08/23 07:41:03;;;;;;;11.30;6.40;;;24.30;70.10;;;;;;5001468;28;20030;-63
2023/08/23 07:43:29;;;;;;;8.30;6.90;;;24.30;70.30;;;;;;5003374;28;20041;-63
2023/08/23 07:45:59;;;;;;;7.97;6.75;;;24.30;70.40;;;;;;5008514;28;20037;-65
2023/08/23 07:48:25;;;;;;;9.35;7.57;;;24.20;70.40;;;;;;5000195;28;20451;-65
2023/08/23 07:50:53;;;;;;;8.80;6.90;;;24.20;70.50;;;;;;5000361;28;20081;-61
2023/08/23 07:53:18;;;;;;;10.07;6.85;;;24.20;70.60;;;;;;5002821;28;20026;-65
2023/08/23 07:55:44;;;;;;;9.77;7.40;;;24.20;70.00;;;;;;5004349;28;20037;-65
2023/08/23 07:58:10;;;;;;;9.57;6.95;;;24.20;70.40;;;;;;5010244;28;20038;-65
2023/08/23 08:00:36;;;;;;;13.32;7.03;;;24.30;70.10;;;;;;5013612;28;20033;-66
2023/08/23 08:03:03;;;;;;;8.63;6.68;;;24.30;70.20;;;;;;5014128;28;20029;-64
2023/08/23 08:05:29;;;;;;;8.55;7.15;;;24.20;69.90;;;;;;5013062;28;20377;-62
2023/08/23 08:07:54;;;;;;;8.65;6.38;;;24.40;69.20;;;;;;4995321;28;20084;-60
2023/08/23 08:10:20;;;;;;;10.55;7.35;;;24.40;69.80;;;;;;5003315;28;20042;-65
2023/08/23 08:12:46;;;;;;;8.65;6.45;;;24.30;70.00;;;;;;5005266;28;20106;-64
2023/08/23 08:15:12;;;;;;;12.80;7.28;;;24.30;70.10;;;;;;4995191;28;20126;-61
2023/08/23 08:17:37;;;;;;;9.65;7.18;;;24.30;69.60;;;;;;4998703;28;20046;-59
2023/08/23 08:20:08;;;;;;;9.13;7.53;;;24.30;69.70;;;;;;5000833;28;20026;-58
2023/08/23 08:22:34;;;;;;;9.10;6.72;;;24.30;69.30;;;;;;4999909;28;20671;-64
2023/08/23 08:25:00;;;;;;;11.30;7.07;;;24.30;69.30;;;;;;5007415;28;20026;-65
2023/08/23 08:27:25;;;;;;;9.18;6.57;;;24.30;69.30;;;;;;4993475;28;20030;-60
2023/08/23 08:29:51;;;;;;;8.30;6.95;;;24.30;70.10;;;;;;4998631;28;20444;-64
2023/08/23 08:32:17;;;;;;;10.73;6.30;;;24.20;70.10;;;;;;5007323;28;20026;-63
2023/08/23 08:34:43;;;;;;;9.38;6.45;;;24.20;69.70;;;;;;5004477;28;20113;-64
2023/08/23 08:37:08;;;;;;;10.90;6.85;;;24.20;69.90;;;;;;5002233;28;20576;-65
2023/08/23 08:39:34;;;;;;;9.18;6.60;;;24.20;69.90;;;;;;4993799;28;20092;-57
2023/08/23 08:42:00;;;;;;;7.07;6.28;;;24.20;69.60;;;;;;4983739;28;20362;-60
2023/08/23 08:44:26;;;;;;;9.68;5.78;;;24.20;69.40;;;;;;5000725;28;20085;-63
2023/08/23 08:46:52;;;;;;;7.53;6.00;;;24.20;69.70;;;;;;5000564;28;20365;-59
2023/08/23 08:49:18;;;;;;;6.75;5.60;;;24.20;69.40;;;;;;5002703;28;20022;-64
2023/08/23 08:51:47;;;;;;;7.50;6.10;;;24.20;69.30;;;;;;5004331;28;20157;-64
2023/08/23 08:54:19;;;;;;;11.82;5.75;;;24.20;69.20;;;;;;5002478;28;20033;-64
2023/08/23 08:56:47;;;;;;;8.52;6.20;;;24.20;69.10;;;;;;4999393;28;20041;-64
2023/08/23 08:59:16;;;;;;;16.73;6.57;;;24.30;68.70;;;;;;5001492;28;20401;-64
2023/08/23 09:01:43;;;;;;;9.45;6.55;;;24.30;67.80;;;;;;5006838;28;20515;-65
2023/08/23 09:04:10;;;;;;;7.40;6.03;;;24.30;66.80;;;;;;4989071;28;20365;-65
2023/08/23 09:06:40;;;;;;;9.18;6.03;;;24.30;67.50;;;;;;5008739;28;20060;-64
2023/08/23 09:09:07;;;;;;;7.47;5.43;;;24.30;67.60;;;;;;5011041;28;20144;-59
2023/08/23 09:11:33;;;;;;;10.70;5.80;;;24.30;67.70;;;;;;5013207;28;20099;-65
2023/08/23 09:13:58;;;;;;;6.72;5.88;;;24.30;67.80;;;;;;5014284;28;20091;-59
2023/08/23 09:16:25;;;;;;;9.80;5.32;;;24.20;67.60;;;;;;5012311;28;20564;-63
2023/08/23 09:18:51;;;;;;;10.07;5.15;;;24.30;67.60;;;;;;5008221;28;20034;-64
2023/08/23 09:21:19;;;;;;;8.93;5.90;;;24.30;66.60;;;;;;4997289;28;20037;-63
2023/08/23 09:23:46;;;;;;;9.25;5.45;;;24.30;66.00;;;;;;5006784;28;20091;-59
2023/08/23 09:26:12;;;;;;;9.32;5.10;;;24.40;66.40;;;;;;5013471;28;20029;-64
2023/08/23 09:28:38;;;;;;;6.03;4.95;;;24.40;66.60;;;;;;5009106;28;20543;-60
2023/08/23 09:31:04;;;;;;;9.95;4.82;;;24.30;66.70;;;;;;5005086;28;20064;-64
2023/08/23 09:33:34;;;;;;;8.13;4.82;;;24.30;66.60;;;;;;5007996;28;20061;-64
2023/08/23 09:36:00;;;;;;;7.35;5.47;;;24.40;66.60;;;;;;5010801;28;20064;-63
2023/08/23 09:38:25;;;;;;;8.68;4.95;;;24.40;66.50;;;;;;5013299;28;20058;-63
2023/08/23 09:40:51;;;;;;;6.22;4.72;;;24.40;66.10;;;;;;5014037;28;20038;-61
2023/08/23 09:43:17;;;;;;;8.13;4.35;;;24.40;66.20;;;;;;5013829;28;20025;-61
2023/08/23 09:45:44;;;;;;;15.02;6.00;;;24.50;65.90;;;;;;5007597;28;20029;-64
2023/08/23 09:48:11;;;;;;;7.47;5.55;;;24.50;65.90;;;;;;5010785;28;20048;-64
2023/08/23 09:50:37;;;;;;;10.02;5.50;;;24.50;65.80;;;;;;5006441;28;20087;-64
2023/08/23 09:53:04;;;;;;;6.50;4.82;;;24.50;66.10;;;;;;5013244;28;20054;-64
2023/08/23 09:55:34;;;;;;;7.45;4.97;;;24.50;65.70;;;;;;5013615;28;20630;-64
2023/08/23 09:58:00;;;;;;;7.93;4.57;;;24.50;64.70;;;;;;5003467;28;20030;-62
2023/08/23 10:00:27;;;;;;;7.97;4.65;;;24.50;64.50;;;;;;5003225;28;20572;-63
2023/08/23 10:02:53;;;;;;;6.00;4.63;;;24.60;65.00;;;;;;5004982;28;20054;-63
2023/08/23 10:05:20;;;;;;;7.93;4.82;;;24.60;65.20;;;;;;5004268;28;20030;-65
2023/08/23 10:07:46;;;;;;;6.28;4.85;;;24.60;65.10;;;;;;5005318;28;20029;-65
2023/08/23 10:10:12;;;;;;;8.38;5.38;;;24.50;64.40;;;;;;5006582;28;20564;-64
2023/08/23 10:12:42;;;;;;;7.93;4.78;;;24.50;65.20;;;;;;5005366;28;20041;-64
2023/08/23 10:15:09;;;;;;;5.13;4.43;;;24.50;64.80;;;;;;5006544;28;20084;-64
2023/08/23 10:17:36;;;;;;;7.45;5.03;;;24.50;65.20;;;;;;5005356;28;20056;-64
2023/08/23 10:20:07;;;;;;;6.72;5.00;;;24.50;65.10;;;;;;5005083;28;20057;-63
2023/08/23 10:22:33;;;;;;;7.78;5.28;;;24.50;65.30;;;;;;5004076;28;20459;-62
2023/08/23 10:24:58;;;;;;;5.55;4.57;;;24.50;64.90;;;;;;4996640;28;20061;-60
2023/08/23 10:27:27;;;;;;;8.52;5.45;;;24.60;65.10;;;;;;5001679;28;20038;-61
2023/08/23 10:29:52;;;;;;;6.93;4.78;;;24.50;65.70;;;;;;4996907;28;20030;-64
2023/08/23 10:32:18;;;;;;;7.57;4.57;;;24.50;65.80;;;;;;5006471;28;20550;-60
2023/08/23 10:34:44;;;;;;;8.05;4.60;;;24.50;65.70;;;;;;5004584;28;20038;-62
2023/08/23 10:37:18;;;;;;;11.43;4.70;;;24.50;65.50;;;;;;5006603;28;20112;-64
2023/08/23 10:39:52;;;;;;;7.00;4.97;;;24.60;65.50;;;;;;5004377;28;20508;-63
2023/08/23 10:42:19;;;;;;;6.93;4.50;;;24.60;64.60;;;;;;5009262;28;20597;-58
2023/08/23 10:44:56;;;;;;;6.72;4.15;;;24.60;64.30;;;;;;5006276;28;20512;-64
2023/08/23 10:47:22;;;;;;;6.18;4.60;;;24.60;64.80;;;;;;5004394;28;20057;-65
2023/08/23 10:49:49;;;;;;;7.30;4.95;;;24.60;64.50;;;;;;5003384;28;20038;-64
2023/08/23 10:52:15;;;;;;;5.97;4.57;;;24.60;64.70;;;;;;5003831;28;20476;-64
2023/08/23 10:54:41;;;;;;;6.30;4.72;;;24.60;64.20;;;;;;5004240;28;20033;-64
2023/08/23 10:57:06;;;;;;;6.38;5.13;;;24.60;64.60;;;;;;5003739;28;20481;-64
2023/08/23 10:59:32;;;;;;;7.88;5.05;;;24.60;64.40;;;;;;5003327;28;20046;-63
2023/08/23 11:01:57;;;;;;;4.38;3.97;;;24.60;63.70;;;;;;5004835;28;20049;-56
2023/08/23 11:04:23;;;;;;;5.20;4.13;;;24.50;63.00;;;;;;5004316;28;20037;-63
2023/08/23 11:06:50;;;;;;;8.85;5.03;;;24.60;63.80;;;;;;5002786;28;20044;-64
2023/08/23 11:09:17;;;;;;;6.18;4.38;;;24.50;64.30;;;;;;5003875;28;20042;-57
2023/08/23 11:11:43;;;;;;;8.35;4.75;;;24.60;64.70;;;;;;5002439;28;20034;-64
2023/08/23 11:14:09;;;;;;;6.45;4.55;;;24.60;64.60;;;;;;5003550;28;20034;-65
2023/08/23 11:16:35;;;;;;;5.47;4.47;;;24.60;64.50;;;;;;5003034;28;20608;-60
2023/08/23 11:19:07;;;;;;;5.35;4.82;;;24.60;64.60;;;;;;5003976;28;20033;-64
2023/08/23 11:21:34;;;;;;;7.40;4.45;;;24.60;64.40;;;;;;5003333;28;20042;-64
2023/08/23 11:24:03;;;;;;;4.88;3.75;;;24.60;64.40;;;;;;5005462;28;20397;-58
2023/08/23 11:26:32;;;;;;;7.78;4.78;;;24.60;64.30;;;;;;4977216;28;20049;-63
2023/08/23 11:28:57;;;;;;;6.22;4.70;;;24.60;63.50;;;;;;4992729;28;20044;-60
2023/08/23 11:31:23;;;;;;;6.03;4.30;;;24.70;62.30;;;;;;5002840;28;20022;-63
2023/08/23 11:33:48;;;;;;;6.93;4.35;;;24.70;63.70;;;;;;5009376;28;20030;-64
2023/08/23 11:36:18;;;;;;;7.40;4.45;;;24.70;62.90;;;;;;4994987;28;20041;-60
2023/08/23 11:38:45;;;;;;;4.50;3.88;;;24.70;63.50;;;;;;5015963;28;20037;-64
2023/08/23 11:41:11;;;;;;;13.52;4.25;;;24.70;63.20;;;;;;4991038;28;20053;-63
2023/08/23 11:43:44;;;;;;;5.68;4.00;;;24.70;61.60;;;;;;5010517;28;20032;-62
2023/08/23 11:46:10;;;;;;;4.22;3.50;;;24.70;62.40;;;;;;5006335;28;20034;-65
2023/08/23 11:48:36;;;;;;;7.90;4.05;;;24.70;63.20;;;;;;5013155;28;20077;-64
2023/08/23 11:51:05;;;;;;;7.45;4.03;;;24.70;62.10;;;;;;5007493;28;20447;-64
2023/08/23 11:53:30;;;;;;;6.45;3.97;;;24.70;62.80;;;;;;5005512;28;20152;-64
2023/08/23 11:55:57;;;;;;;4.93;3.78;;;24.70;62.90;;;;;;5005856;28;20042;-64
2023/08/23 11:58:23;;;;;;;5.47;4.07;;;24.80;62.60;;;;;;5008113;28;20463;-63
2023/08/23 12:00:49;;;;;;;5.50;3.97;;;24.80;62.80;;;;;;5003349;28;20038;-64
2023/08/23 12:03:15;;;;;;;7.88;4.43;;;24.70;63.30;;;;;;5006059;28;20062;-64
2023/08/23 12:05:40;;;;;;;5.05;3.75;;;24.70;63.00;;;;;;5005889;28;20041;-63
2023/08/23 12:08:06;;;;;;;4.75;3.75;;;24.70;62.90;;;;;;5005695;28;20653;-64
2023/08/23 12:10:32;;;;;;;7.05;3.90;;;24.80;63.10;;;;;;5002130;28;20054;-64
2023/08/23 12:12:57;;;;;;;5.00;3.92;;;24.80;62.20;;;;;;5006802;28;20120;-64
2023/08/23 12:15:23;;;;;;;7.22;4.25;;;24.80;62.70;;;;;;5007840;28;20033;-63
2023/08/23 12:17:49;;;;;;;5.13;3.88;;;24.80;62.80;;;;;;5006897;28;20037;-64
2023/08/23 12:20:14;;;;;;;6.03;3.80;;;24.80;62.80;;;;;;5009524;28;20034;-63
2023/08/23 12:22:46;;;;;;;4.43;3.40;;;24.80;62.70;;;;;;5006294;28;20041;-65
2023/08/23 12:25:13;;;;;;;6.50;3.28;;;24.90;62.00;;;;;;4993419;28;20310;-64
2023/08/23 12:27:38;;;;;;;6.68;4.03;;;24.80;61.80;;;;;;5010220;28;20041;-66
2023/08/23 12:30:05;;;;;;;9.30;4.50;;;24.80;63.50;;;;;;4993454;28;20026;-65
2023/08/23 12:32:31;;;;;;;7.78;4.00;;;24.80;61.70;;;;;;5014843;28;20057;-66
2023/08/23 12:34:56;;;;;;;5.18;3.95;;;24.70;62.80;;;;;;5011734;28;20056;-64
2023/08/23 12:37:22;;;;;;;5.80;3.60;;;24.70;62.70;;;;;;5003737;28;20524;-64
2023/08/23 12:39:49;;;;;;;7.07;3.80;;;24.80;62.50;;;;;;5003601;28;20595;-66
2023/08/23 12:42:15;;;;;;;5.72;3.20;;;24.80;62.40;;;;;;5004637;28;20084;-63